sensor_id;sensor_type;location;lat;lon;timestamp;temperature;humidity
4602;DHT22;2313;48.552;9.370;2023-03-31T00:00:26;12.90;99.00
4602;DHT22;2313;48.552;9.370;2023-03-31T00:02:51;12.90;99.50
4602;DHT22;2313;48.552;9.370;2023-03-31T00:05:18;12.80;99.90
4602;DHT22;2313;48.552;9.370;2023-03-31T00:07:46;12.80;99.60
4602;DHT22;2313;48.552;9.370;2023-03-31T00:10:14;12.80;99.60
4602;DHT22;2313;48.552;9.370;2023-03-31T00:12:39;12.70;99.90
4602;DHT22;2313;48.552;9.370;2023-03-31T00:15:05;12.80;99.70
4602;DHT22;2313;48.552;9.370;2023-03-31T00:17:31;12.70;99.70
4602;DHT22;2313;48.552;9.370;2023-03-31T00:19:58;12.70;99.90
4602;DHT22;2313;48.552;9.370;2023-03-31T00:22:25;12.70;99.90
4602;DHT22;2313;48.552;9.370;2023-03-31T00:24:54;12.70;99.90
4602;DHT22;2313;48.552;9.370;2023-03-31T00:27:20;12.60;99.90
4602;DHT22;2313;48.552;9.370;2023-03-31T00:29:45;12.70;99.90
4602;DHT22;2313;48.552;9.370;2023-03-31T00:32:13;12.70;99.90
4602;DHT22;2313;48.552;9.370;2023-03-31T00:34:39;12.70;99.90
4602;DHT22;2313;48.552;9.370;2023-03-31T00:37:05;12.60;99.70
4602;DHT22;2313;48.552;9.370;2023-03-31T00:39:34;12.60;98.90
4602;DHT22;2313;48.552;9.370;2023-03-31T00:42:02;12.80;99.10
4602;DHT22;2313;48.552;9.370;2023-03-31T00:44:29;12.80;98.90
4602;DHT22;2313;48.552;9.370;2023-03-31T00:47:20;12.80;98.70
4602;DHT22;2313;48.552;9.370;2023-03-31T00:49:49;12.80;98.10
4602;DHT22;2313;48.552;9.370;2023-03-31T00:52:27;12.80;98.50
4602;DHT22;2313;48.552;9.370;2023-03-31T00:54:59;12.90;98.20
4602;DHT22;2313;48.552;9.370;2023-03-31T00:57:27;12.90;98.00
4602;DHT22;2313;48.552;9.370;2023-03-31T00:59:58;12.90;97.60
4602;DHT22;2313;48.552;9.370;2023-03-31T01:02:26;12.90;97.30
4602;DHT22;2313;48.552;9.370;2023-03-31T01:04:57;13.00;97.20
4602;DHT22;2313;48.552;9.370;2023-03-31T01:07:32;13.00;97.30
4602;DHT22;2313;48.552;9.370;2023-03-31T01:10:02;13.00;97.00
4602;DHT22;2313;48.552;9.370;2023-03-31T01:12:31;13.00;98.00
4602;DHT22;2313;48.552;9.370;2023-03-31T01:14:58;13.10;97.00
4602;DHT22;2313;48.552;9.370;2023-03-31T01:17:25;13.00;97.30
4602;DHT22;2313;48.552;9.370;2023-03-31T01:36:15;13.10;95.80
4602;DHT22;2313;48.552;9.370;2023-03-31T01:41:56;13.00;96.30
4602;DHT22;2313;48.552;9.370;2023-03-31T01:47:23;13.00;96.50
4602;DHT22;2313;48.552;9.370;2023-03-31T01:50:01;12.90;96.40
4602;DHT22;2313;48.552;9.370;2023-03-31T01:52:41;12.90;96.90
4602;DHT22;2313;48.552;9.370;2023-03-31T01:55:23;12.90;96.10
4602;DHT22;2313;48.552;9.370;2023-03-31T01:58:00;12.90;97.10
4602;DHT22;2313;48.552;9.370;2023-03-31T02:00:30;12.90;98.10
4602;DHT22;2313;48.552;9.370;2023-03-31T02:03:11;12.70;99.90
4602;DHT22;2313;48.552;9.370;2023-03-31T02:05:53;12.60;99.90
4602;DHT22;2313;48.552;9.370;2023-03-31T02:08:28;12.50;99.90
4602;DHT22;2313;48.552;9.370;2023-03-31T02:10:56;12.40;99.90
4602;DHT22;2313;48.552;9.370;2023-03-31T02:13:25;12.30;99.90
4602;DHT22;2313;48.552;9.370;2023-03-31T02:15:56;12.20;99.90
4602;DHT22;2313;48.552;9.370;2023-03-31T02:18:26;12.20;99.90
4602;DHT22;2313;48.552;9.370;2023-03-31T02:20:57;12.20;99.90
4602;DHT22;2313;48.552;9.370;2023-03-31T02:23:26;12.10;99.90
4602;DHT22;2313;48.552;9.370;2023-03-31T02:26:06;12.10;99.90
4602;DHT22;2313;48.552;9.370;2023-03-31T02:28:32;11.90;99.90
4602;DHT22;2313;48.552;9.370;2023-03-31T02:31:08;11.80;99.90
4602;DHT22;2313;48.552;9.370;2023-03-31T02:33:38;11.70;99.90
4602;DHT22;2313;48.552;9.370;2023-03-31T02:36:04;11.50;99.90
4602;DHT22;2313;48.552;9.370;2023-03-31T02:38:37;11.50;99.90
4602;DHT22;2313;48.552;9.370;2023-03-31T02:41:04;11.30;99.90
4602;DHT22;2313;48.552;9.370;2023-03-31T02:43:30;11.30;99.90
4602;DHT22;2313;48.552;9.370;2023-03-31T02:45:55;11.20;99.90
4602;DHT22;2313;48.552;9.370;2023-03-31T02:48:24;11.20;99.90
4602;DHT22;2313;48.552;9.370;2023-03-31T02:57:04;11.10;99.90
4602;DHT22;2313;48.552;9.370;2023-03-31T02:59:57;11.10;99.90
4602;DHT22;2313;48.552;9.370;2023-03-31T03:08:44;10.90;99.90
4602;DHT22;2313;48.552;9.370;2023-03-31T03:11:14;10.90;99.90
4602;DHT22;2313;48.552;9.370;2023-03-31T03:16:37;10.70;99.90
4602;DHT22;2313;48.552;9.370;2023-03-31T03:19:06;10.60;99.90
4602;DHT22;2313;48.552;9.370;2023-03-31T03:21:32;10.50;99.90
4602;DHT22;2313;48.552;9.370;2023-03-31T03:23:58;10.50;99.90
4602;DHT22;2313;48.552;9.370;2023-03-31T03:26:25;10.40;99.90
4602;DHT22;2313;48.552;9.370;2023-03-31T03:28:56;10.40;99.90
4602;DHT22;2313;48.552;9.370;2023-03-31T03:31:22;10.30;99.90
4602;DHT22;2313;48.552;9.370;2023-03-31T03:33:51;10.30;99.90
4602;DHT22;2313;48.552;9.370;2023-03-31T03:36:18;10.30;99.90
4602;DHT22;2313;48.552;9.370;2023-03-31T03:38:43;10.30;99.90
4602;DHT22;2313;48.552;9.370;2023-03-31T03:41:09;10.30;99.90
4602;DHT22;2313;48.552;9.370;2023-03-31T03:43:35;10.40;99.90
4602;DHT22;2313;48.552;9.370;2023-03-31T03:46:00;10.60;99.90
4602;DHT22;2313;48.552;9.370;2023-03-31T03:48:26;10.70;99.90
4602;DHT22;2313;48.552;9.370;2023-03-31T03:50:52;10.70;99.90
4602;DHT22;2313;48.552;9.370;2023-03-31T03:53:19;10.70;99.90
4602;DHT22;2313;48.552;9.370;2023-03-31T03:55:45;10.70;99.90
4602;DHT22;2313;48.552;9.370;2023-03-31T03:58:14;10.80;99.90
4602;DHT22;2313;48.552;9.370;2023-03-31T04:00:40;10.80;99.90
4602;DHT22;2313;48.552;9.370;2023-03-31T04:03:05;10.70;99.90
4602;DHT22;2313;48.552;9.370;2023-03-31T04:05:31;10.70;99.90
4602;DHT22;2313;48.552;9.370;2023-03-31T04:07:57;10.80;99.90
4602;DHT22;2313;48.552;9.370;2023-03-31T04:10:22;10.60;99.90
4602;DHT22;2313;48.552;9.370;2023-03-31T04:12:48;10.70;99.90
4602;DHT22;2313;48.552;9.370;2023-03-31T04:15:14;10.70;99.90
4602;DHT22;2313;48.552;9.370;2023-03-31T04:17:40;10.70;99.90
4602;DHT22;2313;48.552;9.370;2023-03-31T04:20:07;10.60;99.90
4602;DHT22;2313;48.552;9.370;2023-03-31T04:22:34;10.50;99.90
4602;DHT22;2313;48.552;9.370;2023-03-31T04:25:10;10.40;99.90
4602;DHT22;2313;48.552;9.370;2023-03-31T04:27:45;10.50;99.90
4602;DHT22;2313;48.552;9.370;2023-03-31T04:30:16;10.60;99.90
4602;DHT22;2313;48.552;9.370;2023-03-31T04:32:56;10.60;99.90
4602;DHT22;2313;48.552;9.370;2023-03-31T04:35:23;10.50;99.90
4602;DHT22;2313;48.552;9.370;2023-03-31T04:37:50;10.50;99.90
4602;DHT22;2313;48.552;9.370;2023-03-31T04:40:17;10.40;99.90
4602;DHT22;2313;48.552;9.370;2023-03-31T04:42:43;10.40;99.90
4602;DHT22;2313;48.552;9.370;2023-03-31T04:45:10;10.40;99.90
4602;DHT22;2313;48.552;9.370;2023-03-31T04:47:37;10.40;99.90
4602;DHT22;2313;48.552;9.370;2023-03-31T04:50:03;10.40;99.90
4602;DHT22;2313;48.552;9.370;2023-03-31T04:52:29;10.40;99.90
4602;DHT22;2313;48.552;9.370;2023-03-31T04:54:54;10.30;99.90
4602;DHT22;2313;48.552;9.370;2023-03-31T04:57:20;10.40;99.90
4602;DHT22;2313;48.552;9.370;2023-03-31T04:59:46;10.20;99.90
4602;DHT22;2313;48.552;9.370;2023-03-31T05:02:11;10.20;99.90
4602;DHT22;2313;48.552;9.370;2023-03-31T05:04:37;10.20;99.90
4602;DHT22;2313;48.552;9.370;2023-03-31T05:07:03;10.30;99.90
4602;DHT22;2313;48.552;9.370;2023-03-31T05:09:28;10.30;99.90
4602;DHT22;2313;48.552;9.370;2023-03-31T05:11:55;10.30;99.90
4602;DHT22;2313;48.552;9.370;2023-03-31T05:14:21;10.40;99.90
4602;DHT22;2313;48.552;9.370;2023-03-31T05:16:47;10.40;99.90
4602;DHT22;2313;48.552;9.370;2023-03-31T05:19:12;10.30;99.90
4602;DHT22;2313;48.552;9.370;2023-03-31T05:21:38;10.30;99.90
4602;DHT22;2313;48.552;9.370;2023-03-31T05:24:04;10.30;99.90
4602;DHT22;2313;48.552;9.370;2023-03-31T05:26:30;10.20;99.90
4602;DHT22;2313;48.552;9.370;2023-03-31T05:28:55;10.20;99.90
4602;DHT22;2313;48.552;9.370;2023-03-31T05:31:21;10.20;99.90
4602;DHT22;2313;48.552;9.370;2023-03-31T05:33:47;10.20;99.90
4602;DHT22;2313;48.552;9.370;2023-03-31T05:36:15;10.20;99.90
4602;DHT22;2313;48.552;9.370;2023-03-31T05:38:41;10.30;99.90
4602;DHT22;2313;48.552;9.370;2023-03-31T05:41:08;10.30;99.90
4602;DHT22;2313;48.552;9.370;2023-03-31T05:43:35;10.30;99.90
4602;DHT22;2313;48.552;9.370;2023-03-31T05:46:01;10.20;99.90
4602;DHT22;2313;48.552;9.370;2023-03-31T05:48:26;10.20;99.90
4602;DHT22;2313;48.552;9.370;2023-03-31T05:50:58;10.20;99.90
4602;DHT22;2313;48.552;9.370;2023-03-31T05:53:25;10.10;99.90
4602;DHT22;2313;48.552;9.370;2023-03-31T05:55:56;10.10;99.90
4602;DHT22;2313;48.552;9.370;2023-03-31T05:58:23;10.10;99.90
4602;DHT22;2313;48.552;9.370;2023-03-31T06:00:48;10.10;99.90
4602;DHT22;2313;48.552;9.370;2023-03-31T06:03:14;10.20;99.90
4602;DHT22;2313;48.552;9.370;2023-03-31T06:05:49;10.20;99.90
4602;DHT22;2313;48.552;9.370;2023-03-31T06:08:14;10.20;99.90
4602;DHT22;2313;48.552;9.370;2023-03-31T06:10:40;10.30;99.90
4602;DHT22;2313;48.552;9.370;2023-03-31T06:13:07;10.30;99.90
4602;DHT22;2313;48.552;9.370;2023-03-31T06:15:32;10.30;99.90
4602;DHT22;2313;48.552;9.370;2023-03-31T06:17:58;10.30;99.90
4602;DHT22;2313;48.552;9.370;2023-03-31T06:20:23;10.30;99.90
4602;DHT22;2313;48.552;9.370;2023-03-31T06:22:49;10.30;99.90
4602;DHT22;2313;48.552;9.370;2023-03-31T06:25:15;10.30;99.90
4602;DHT22;2313;48.552;9.370;2023-03-31T06:27:40;10.30;99.90
4602;DHT22;2313;48.552;9.370;2023-03-31T06:30:06;10.30;99.90
4602;DHT22;2313;48.552;9.370;2023-03-31T06:32:32;10.30;99.90
4602;DHT22;2313;48.552;9.370;2023-03-31T06:34:58;10.40;99.90
4602;DHT22;2313;48.552;9.370;2023-03-31T06:37:23;10.40;99.90
4602;DHT22;2313;48.552;9.370;2023-03-31T06:39:49;10.40;99.90
4602;DHT22;2313;48.552;9.370;2023-03-31T06:42:15;10.40;99.90
4602;DHT22;2313;48.552;9.370;2023-03-31T06:44:40;10.40;99.90
4602;DHT22;2313;48.552;9.370;2023-03-31T06:47:06;10.30;99.90
4602;DHT22;2313;48.552;9.370;2023-03-31T06:49:31;10.40;99.90
4602;DHT22;2313;48.552;9.370;2023-03-31T06:51:57;10.40;99.90
4602;DHT22;2313;48.552;9.370;2023-03-31T06:54:22;10.40;99.90
4602;DHT22;2313;48.552;9.370;2023-03-31T06:56:48;10.40;99.90
4602;DHT22;2313;48.552;9.370;2023-03-31T06:59:13;10.40;99.90
4602;DHT22;2313;48.552;9.370;2023-03-31T07:01:39;10.50;99.90
4602;DHT22;2313;48.552;9.370;2023-03-31T07:04:06;10.50;99.90
4602;DHT22;2313;48.552;9.370;2023-03-31T07:06:33;10.40;99.90
4602;DHT22;2313;48.552;9.370;2023-03-31T07:08:58;10.30;99.90
4602;DHT22;2313;48.552;9.370;2023-03-31T07:11:24;10.30;99.90
4602;DHT22;2313;48.552;9.370;2023-03-31T07:13:50;10.20;99.90
4602;DHT22;2313;48.552;9.370;2023-03-31T07:16:15;10.20;99.90
4602;DHT22;2313;48.552;9.370;2023-03-31T07:18:41;10.10;99.90
4602;DHT22;2313;48.552;9.370;2023-03-31T07:21:07;10.10;99.90
4602;DHT22;2313;48.552;9.370;2023-03-31T07:23:33;9.90;99.90
4602;DHT22;2313;48.552;9.370;2023-03-31T07:25:59;9.90;99.90
4602;DHT22;2313;48.552;9.370;2023-03-31T07:28:27;9.90;99.90
4602;DHT22;2313;48.552;9.370;2023-03-31T07:30:53;9.90;99.90
4602;DHT22;2313;48.552;9.370;2023-03-31T07:33:18;9.90;99.90
4602;DHT22;2313;48.552;9.370;2023-03-31T07:35:44;9.70;99.90
4602;DHT22;2313;48.552;9.370;2023-03-31T07:38:11;9.90;99.90
4602;DHT22;2313;48.552;9.370;2023-03-31T07:40:37;9.80;99.90
4602;DHT22;2313;48.552;9.370;2023-03-31T07:43:03;9.80;99.90
4602;DHT22;2313;48.552;9.370;2023-03-31T07:45:29;9.80;99.90
4602;DHT22;2313;48.552;9.370;2023-03-31T07:47:55;9.90;99.90
4602;DHT22;2313;48.552;9.370;2023-03-31T07:50:21;10.00;99.90
4602;DHT22;2313;48.552;9.370;2023-03-31T07:52:48;10.10;99.90
4602;DHT22;2313;48.552;9.370;2023-03-31T07:55:14;10.20;99.90
4602;DHT22;2313;48.552;9.370;2023-03-31T07:57:40;10.30;99.90
4602;DHT22;2313;48.552;9.370;2023-03-31T08:00:08;10.30;99.90
4602;DHT22;2313;48.552;9.370;2023-03-31T08:02:36;10.30;99.90
4602;DHT22;2313;48.552;9.370;2023-03-31T08:05:03;10.40;99.90
4602;DHT22;2313;48.552;9.370;2023-03-31T08:07:33;10.60;99.90
4602;DHT22;2313;48.552;9.370;2023-03-31T08:09:59;10.70;99.90
4602;DHT22;2313;48.552;9.370;2023-03-31T08:12:25;11.00;99.90
4602;DHT22;2313;48.552;9.370;2023-03-31T08:14:50;11.10;99.90
4602;DHT22;2313;48.552;9.370;2023-03-31T08:17:16;11.10;99.90
4602;DHT22;2313;48.552;9.370;2023-03-31T08:19:42;11.30;99.90
4602;DHT22;2313;48.552;9.370;2023-03-31T08:22:07;11.60;99.90
4602;DHT22;2313;48.552;9.370;2023-03-31T08:24:33;11.80;99.90
4602;DHT22;2313;48.552;9.370;2023-03-31T08:26:59;12.10;99.90
4602;DHT22;2313;48.552;9.370;2023-03-31T08:29:24;12.30;99.90
4602;DHT22;2313;48.552;9.370;2023-03-31T08:31:50;12.70;99.90
4602;DHT22;2313;48.552;9.370;2023-03-31T08:34:15;12.70;99.90
4602;DHT22;2313;48.552;9.370;2023-03-31T08:36:41;13.00;99.90
4602;DHT22;2313;48.552;9.370;2023-03-31T08:39:07;13.40;99.90
4602;DHT22;2313;48.552;9.370;2023-03-31T08:46:49;14.10;99.90
4602;DHT22;2313;48.552;9.370;2023-03-31T08:49:18;14.40;99.90
4602;DHT22;2313;48.552;9.370;2023-03-31T08:51:50;14.60;99.90
4602;DHT22;2313;48.552;9.370;2023-03-31T08:54:37;14.80;99.90
4602;DHT22;2313;48.552;9.370;2023-03-31T08:59:59;15.30;99.90
4602;DHT22;2313;48.552;9.370;2023-03-31T09:02:45;15.20;99.90
4602;DHT22;2313;48.552;9.370;2023-03-31T09:05:27;15.80;99.90
4602;DHT22;2313;48.552;9.370;2023-03-31T09:08:02;15.80;99.90
4602;DHT22;2313;48.552;9.370;2023-03-31T09:10:40;16.10;99.90
4602;DHT22;2313;48.552;9.370;2023-03-31T09:13:34;16.00;97.60
4602;DHT22;2313;48.552;9.370;2023-03-31T09:18:42;15.60;98.20
4602;DHT22;2313;48.552;9.370;2023-03-31T09:21:34;15.80;99.90
4602;DHT22;2313;48.552;9.370;2023-03-31T09:24:22;15.90;99.90
4602;DHT22;2313;48.552;9.370;2023-03-31T09:26:57;15.80;99.40
4602;DHT22;2313;48.552;9.370;2023-03-31T09:32:28;16.40;99.90
4602;DHT22;2313;48.552;9.370;2023-03-31T09:35:17;16.70;98.10
4602;DHT22;2313;48.552;9.370;2023-03-31T09:37:46;16.20;95.30
4602;DHT22;2313;48.552;9.370;2023-03-31T09:40:20;15.80;94.60
4602;DHT22;2313;48.552;9.370;2023-03-31T09:43:07;15.70;96.40
4602;DHT22;2313;48.552;9.370;2023-03-31T09:45:34;15.90;95.40
4602;DHT22;2313;48.552;9.370;2023-03-31T09:48:06;15.90;93.80
4602;DHT22;2313;48.552;9.370;2023-03-31T09:50:43;16.00;94.40
4602;DHT22;2313;48.552;9.370;2023-03-31T09:53:18;16.70;92.90
4602;DHT22;2313;48.552;9.370;2023-03-31T09:55:51;16.80;90.80
4602;DHT22;2313;48.552;9.370;2023-03-31T09:58:17;16.30;92.00
4602;DHT22;2313;48.552;9.370;2023-03-31T10:01:04;16.20;93.70
4602;DHT22;2313;48.552;9.370;2023-03-31T10:03:31;16.20;93.80
4602;DHT22;2313;48.552;9.370;2023-03-31T10:06:13;16.00;92.70
4602;DHT22;2313;48.552;9.370;2023-03-31T10:11:16;15.80;93.20
4602;DHT22;2313;48.552;9.370;2023-03-31T10:13:48;16.00;93.40
4602;DHT22;2313;48.552;9.370;2023-03-31T10:18:54;15.30;90.50
4602;DHT22;2313;48.552;9.370;2023-03-31T10:21:24;15.50;91.70
4602;DHT22;2313;48.552;9.370;2023-03-31T10:23:52;15.70;92.40
4602;DHT22;2313;48.552;9.370;2023-03-31T10:26:25;15.50;90.50
4602;DHT22;2313;48.552;9.370;2023-03-31T10:28:51;15.90;90.90
4602;DHT22;2313;48.552;9.370;2023-03-31T10:31:23;15.80;90.90
4602;DHT22;2313;48.552;9.370;2023-03-31T10:33:50;15.80;92.00
4602;DHT22;2313;48.552;9.370;2023-03-31T10:36:25;15.70;91.70
4602;DHT22;2313;48.552;9.370;2023-03-31T10:38:52;15.60;92.30
4602;DHT22;2313;48.552;9.370;2023-03-31T10:41:29;15.80;91.90
4602;DHT22;2313;48.552;9.370;2023-03-31T10:44:00;15.80;90.10
4602;DHT22;2313;48.552;9.370;2023-03-31T10:46:40;15.70;91.30
4602;DHT22;2313;48.552;9.370;2023-03-31T10:52:21;16.10;89.80
4602;DHT22;2313;48.552;9.370;2023-03-31T10:54:55;16.30;87.20
4602;DHT22;2313;48.552;9.370;2023-03-31T11:00:36;16.70;83.90
4602;DHT22;2313;48.552;9.370;2023-03-31T11:03:12;17.10;82.30
4602;DHT22;2313;48.552;9.370;2023-03-31T11:05:53;17.40;81.30
4602;DHT22;2313;48.552;9.370;2023-03-31T11:11:11;17.10;76.40
4602;DHT22;2313;48.552;9.370;2023-03-31T11:16:37;16.40;77.90
4602;DHT22;2313;48.552;9.370;2023-03-31T11:21:57;16.40;76.80
4602;DHT22;2313;48.552;9.370;2023-03-31T11:28:07;15.90;80.00
4602;DHT22;2313;48.552;9.370;2023-03-31T11:36:19;13.90;99.70
4602;DHT22;2313;48.552;9.370;2023-03-31T11:41:21;10.80;99.90
4602;DHT22;2313;48.552;9.370;2023-03-31T11:43:59;10.20;99.90
4602;DHT22;2313;48.552;9.370;2023-03-31T11:46:53;9.90;99.90
4602;DHT22;2313;48.552;9.370;2023-03-31T11:49:33;9.60;99.90
4602;DHT22;2313;48.552;9.370;2023-03-31T11:52:12;9.50;99.90
4602;DHT22;2313;48.552;9.370;2023-03-31T11:54:49;9.50;99.90
4602;DHT22;2313;48.552;9.370;2023-03-31T11:57:26;9.40;99.90
4602;DHT22;2313;48.552;9.370;2023-03-31T12:00:02;9.30;99.90
4602;DHT22;2313;48.552;9.370;2023-03-31T12:02:48;9.30;99.90
4602;DHT22;2313;48.552;9.370;2023-03-31T12:05:16;9.20;99.90
4602;DHT22;2313;48.552;9.370;2023-03-31T12:07:50;9.40;99.90
4602;DHT22;2313;48.552;9.370;2023-03-31T12:12:51;10.50;99.90
4602;DHT22;2313;48.552;9.370;2023-03-31T12:15:36;11.10;99.90
4602;DHT22;2313;48.552;9.370;2023-03-31T12:18:20;10.70;99.90
4602;DHT22;2313;48.552;9.370;2023-03-31T12:20:50;10.50;99.90
4602;DHT22;2313;48.552;9.370;2023-03-31T12:23:19;10.30;99.90
4602;DHT22;2313;48.552;9.370;2023-03-31T12:28:24;10.50;99.90
4602;DHT22;2313;48.552;9.370;2023-03-31T12:30:52;10.60;99.90
4602;DHT22;2313;48.552;9.370;2023-03-31T12:33:26;10.60;99.90
4602;DHT22;2313;48.552;9.370;2023-03-31T12:44:15;12.90;99.90
4602;DHT22;2313;48.552;9.370;2023-03-31T12:47:15;13.20;99.90
4602;DHT22;2313;48.552;9.370;2023-03-31T12:52:49;14.00;99.90
4602;DHT22;2313;48.552;9.370;2023-03-31T12:55:36;14.70;99.90
4602;DHT22;2313;48.552;9.370;2023-03-31T13:06:01;15.30;99.50
4602;DHT22;2313;48.552;9.370;2023-03-31T13:11:39;16.20;96.20
4602;DHT22;2313;48.552;9.370;2023-03-31T13:14:18;16.50;97.00
4602;DHT22;2313;48.552;9.370;2023-03-31T13:16:44;16.70;96.90
4602;DHT22;2313;48.552;9.370;2023-03-31T13:19:43;16.40;94.50
4602;DHT22;2313;48.552;9.370;2023-03-31T13:22:29;16.00;94.60
4602;DHT22;2313;48.552;9.370;2023-03-31T13:33:13;15.00;98.70
4602;DHT22;2313;48.552;9.370;2023-03-31T13:35:43;14.80;97.90
4602;DHT22;2313;48.552;9.370;2023-03-31T13:38:33;14.70;98.80
4602;DHT22;2313;48.552;9.370;2023-03-31T13:41:09;14.70;98.00
4602;DHT22;2313;48.552;9.370;2023-03-31T13:43:47;14.60;99.60
4602;DHT22;2313;48.552;9.370;2023-03-31T13:49:28;14.40;99.30
4602;DHT22;2313;48.552;9.370;2023-03-31T13:52:08;14.30;98.70
4602;DHT22;2313;48.552;9.370;2023-03-31T13:54:37;14.00;99.30
4602;DHT22;2313;48.552;9.370;2023-03-31T14:07:47;11.90;99.90
4602;DHT22;2313;48.552;9.370;2023-03-31T14:10:30;11.40;99.90
4602;DHT22;2313;48.552;9.370;2023-03-31T14:13:10;10.90;99.90
4602;DHT22;2313;48.552;9.370;2023-03-31T14:15:57;10.60;99.90
4602;DHT22;2313;48.552;9.370;2023-03-31T14:18:27;10.30;99.90
4602;DHT22;2313;48.552;9.370;2023-03-31T14:21:47;10.30;99.90
4602;DHT22;2313;48.552;9.370;2023-03-31T14:26:56;11.60;99.90
4602;DHT22;2313;48.552;9.370;2023-03-31T14:29:46;11.80;99.90
4602;DHT22;2313;48.552;9.370;2023-03-31T14:32:43;11.70;99.90
4602;DHT22;2313;48.552;9.370;2023-03-31T14:38:22;11.30;99.90
4602;DHT22;2313;48.552;9.370;2023-03-31T14:40:52;11.00;99.90
4602;DHT22;2313;48.552;9.370;2023-03-31T14:43:22;11.10;99.90
4602;DHT22;2313;48.552;9.370;2023-03-31T14:45:59;10.90;99.90
4602;DHT22;2313;48.552;9.370;2023-03-31T14:48:27;10.90;99.90
4602;DHT22;2313;48.552;9.370;2023-03-31T14:50:56;11.10;99.90
4602;DHT22;2313;48.552;9.370;2023-03-31T14:53:24;11.20;99.90
4602;DHT22;2313;48.552;9.370;2023-03-31T14:56:06;11.20;99.90
4602;DHT22;2313;48.552;9.370;2023-03-31T14:58:35;11.20;99.90
4602;DHT22;2313;48.552;9.370;2023-03-31T15:01:03;11.20;99.90
4602;DHT22;2313;48.552;9.370;2023-03-31T15:03:35;11.20;99.90
4602;DHT22;2313;48.552;9.370;2023-03-31T15:06:06;11.30;99.90
4602;DHT22;2313;48.552;9.370;2023-03-31T15:08:32;11.60;99.90
4602;DHT22;2313;48.552;9.370;2023-03-31T15:11:02;11.50;99.90
4602;DHT22;2313;48.552;9.370;2023-03-31T15:13:36;11.40;99.90
4602;DHT22;2313;48.552;9.370;2023-03-31T15:16:29;11.50;99.90
4602;DHT22;2313;48.552;9.370;2023-03-31T15:18:57;11.50;99.90
4602;DHT22;2313;48.552;9.370;2023-03-31T15:21:26;11.70;99.90
4602;DHT22;2313;48.552;9.370;2023-03-31T15:23:55;11.80;99.90
4602;DHT22;2313;48.552;9.370;2023-03-31T15:26:27;12.00;99.90
4602;DHT22;2313;48.552;9.370;2023-03-31T15:31:31;11.80;99.90
4602;DHT22;2313;48.552;9.370;2023-03-31T15:33:57;11.80;99.90
4602;DHT22;2313;48.552;9.370;2023-03-31T15:36:31;11.80;99.90
4602;DHT22;2313;48.552;9.370;2023-03-31T15:38:58;11.60;99.90
4602;DHT22;2313;48.552;9.370;2023-03-31T15:41:28;11.70;99.90
4602;DHT22;2313;48.552;9.370;2023-03-31T15:44:06;11.50;99.90
4602;DHT22;2313;48.552;9.370;2023-03-31T15:49:07;11.60;99.90
4602;DHT22;2313;48.552;9.370;2023-03-31T15:51:45;11.60;99.90
4602;DHT22;2313;48.552;9.370;2023-03-31T15:54:40;11.50;99.90
4602;DHT22;2313;48.552;9.370;2023-03-31T15:57:08;11.40;99.90
4602;DHT22;2313;48.552;9.370;2023-03-31T15:59:47;11.40;99.90
4602;DHT22;2313;48.552;9.370;2023-03-31T16:02:23;11.40;99.90
4602;DHT22;2313;48.552;9.370;2023-03-31T16:04:54;11.40;99.90
4602;DHT22;2313;48.552;9.370;2023-03-31T16:07:34;11.40;99.90
4602;DHT22;2313;48.552;9.370;2023-03-31T16:10:09;11.30;99.90
4602;DHT22;2313;48.552;9.370;2023-03-31T16:12:39;11.20;99.90
4602;DHT22;2313;48.552;9.370;2023-03-31T16:15:20;11.20;99.90
4602;DHT22;2313;48.552;9.370;2023-03-31T16:17:52;11.10;99.90
4602;DHT22;2313;48.552;9.370;2023-03-31T16:22:52;11.00;99.90
4602;DHT22;2313;48.552;9.370;2023-03-31T16:25:21;11.10;99.90
4602;DHT22;2313;48.552;9.370;2023-03-31T16:27:58;11.00;99.90
4602;DHT22;2313;48.552;9.370;2023-03-31T16:30:36;11.10;99.90
4602;DHT22;2313;48.552;9.370;2023-03-31T16:33:10;11.00;99.90
4602;DHT22;2313;48.552;9.370;2023-03-31T16:35:39;11.00;99.90
4602;DHT22;2313;48.552;9.370;2023-03-31T16:38:06;11.00;99.90
4602;DHT22;2313;48.552;9.370;2023-03-31T16:40:39;11.00;99.90
4602;DHT22;2313;48.552;9.370;2023-03-31T16:43:15;11.00;99.90
4602;DHT22;2313;48.552;9.370;2023-03-31T16:45:50;11.00;99.90
4602;DHT22;2313;48.552;9.370;2023-03-31T16:48:17;10.90;99.90
4602;DHT22;2313;48.552;9.370;2023-03-31T16:50:48;10.80;99.90
4602;DHT22;2313;48.552;9.370;2023-03-31T16:53:15;10.70;99.90
4602;DHT22;2313;48.552;9.370;2023-03-31T16:55:41;10.60;99.90
4602;DHT22;2313;48.552;9.370;2023-03-31T16:58:07;10.30;99.90
4602;DHT22;2313;48.552;9.370;2023-03-31T17:00:34;10.20;99.90
4602;DHT22;2313;48.552;9.370;2023-03-31T17:03:01;10.10;99.90
4602;DHT22;2313;48.552;9.370;2023-03-31T17:05:28;9.90;99.90
4602;DHT22;2313;48.552;9.370;2023-03-31T17:07:55;9.70;99.90
4602;DHT22;2313;48.552;9.370;2023-03-31T17:10:22;9.50;99.90
4602;DHT22;2313;48.552;9.370;2023-03-31T17:12:47;9.50;99.90
4602;DHT22;2313;48.552;9.370;2023-03-31T17:15:13;9.40;99.90
4602;DHT22;2313;48.552;9.370;2023-03-31T17:17:39;9.30;99.90
4602;DHT22;2313;48.552;9.370;2023-03-31T17:20:05;9.10;99.90
4602;DHT22;2313;48.552;9.370;2023-03-31T17:22:32;9.10;99.90
4602;DHT22;2313;48.552;9.370;2023-03-31T17:24:57;9.10;99.90
4602;DHT22;2313;48.552;9.370;2023-03-31T17:27:24;9.10;99.90
4602;DHT22;2313;48.552;9.370;2023-03-31T17:29:50;9.20;99.90
4602;DHT22;2313;48.552;9.370;2023-03-31T17:32:16;9.10;99.90
4602;DHT22;2313;48.552;9.370;2023-03-31T17:34:42;9.00;99.90
4602;DHT22;2313;48.552;9.370;2023-03-31T17:37:08;8.90;99.90
4602;DHT22;2313;48.552;9.370;2023-03-31T17:39:33;8.90;99.90
4602;DHT22;2313;48.552;9.370;2023-03-31T17:41:59;9.00;99.90
4602;DHT22;2313;48.552;9.370;2023-03-31T17:44:25;9.00;99.90
4602;DHT22;2313;48.552;9.370;2023-03-31T17:46:51;9.00;99.90
4602;DHT22;2313;48.552;9.370;2023-03-31T17:49:18;9.00;99.90
4602;DHT22;2313;48.552;9.370;2023-03-31T17:51:43;9.00;99.90
4602;DHT22;2313;48.552;9.370;2023-03-31T17:54:10;9.10;99.90
4602;DHT22;2313;48.552;9.370;2023-03-31T17:56:36;9.10;99.90
4602;DHT22;2313;48.552;9.370;2023-03-31T17:59:03;9.10;99.90
4602;DHT22;2313;48.552;9.370;2023-03-31T18:01:28;9.10;99.90
4602;DHT22;2313;48.552;9.370;2023-03-31T18:03:55;9.10;99.90
4602;DHT22;2313;48.552;9.370;2023-03-31T18:06:21;9.10;99.90
4602;DHT22;2313;48.552;9.370;2023-03-31T18:08:46;9.20;99.90
4602;DHT22;2313;48.552;9.370;2023-03-31T18:11:12;9.20;99.90
4602;DHT22;2313;48.552;9.370;2023-03-31T18:13:38;9.40;99.90
4602;DHT22;2313;48.552;9.370;2023-03-31T18:16:05;9.30;99.90
4602;DHT22;2313;48.552;9.370;2023-03-31T18:18:34;9.30;99.90
4602;DHT22;2313;48.552;9.370;2023-03-31T18:21:05;9.40;99.90
4602;DHT22;2313;48.552;9.370;2023-03-31T18:23:32;9.40;99.90
4602;DHT22;2313;48.552;9.370;2023-03-31T18:25:58;9.40;99.90
4602;DHT22;2313;48.552;9.370;2023-03-31T18:28:24;9.40;99.90
4602;DHT22;2313;48.552;9.370;2023-03-31T18:30:50;9.40;99.90
4602;DHT22;2313;48.552;9.370;2023-03-31T18:33:15;9.30;99.90
4602;DHT22;2313;48.552;9.370;2023-03-31T18:35:42;9.40;99.90
4602;DHT22;2313;48.552;9.370;2023-03-31T18:38:08;9.40;99.90
4602;DHT22;2313;48.552;9.370;2023-03-31T18:40:34;9.50;99.90
4602;DHT22;2313;48.552;9.370;2023-03-31T18:43:01;9.50;99.90
4602;DHT22;2313;48.552;9.370;2023-03-31T18:45:27;9.60;99.90
4602;DHT22;2313;48.552;9.370;2023-03-31T18:47:55;9.60;99.90
4602;DHT22;2313;48.552;9.370;2023-03-31T18:50:21;9.60;99.90